Time;durP1;ratioP1;P1;durP2;ratioP2;P2;SDS_P1;SDS_P2;PMS_P1;PMS_P2;Temp;Humidity;BMP_temperature;BMP_pressure;BME280_temperature;BME280_humidity;BME280_pressure;Samples;Min_cycle;Max_cycle;Signal;HPM_P1;HPM_P2
2023/03/31 00:01:09;;;;;;;;;15.25;14.75;;;;;13.73;66.46;99053.72;5069724;28;45468;-75
2023/03/31 00:03:37;;;;;;;;;19.00;18.00;;;;;13.74;66.41;99052.78;5054361;28;45519;-75
2023/03/31 00:06:04;;;;;;;;;11.75;11.75;;;;;13.75;66.43;99057.13;5053254;28;45349;-75
2023/03/31 00:08:34;;;;;;;;;15.00;15.00;;;;;13.76;66.66;99061.47;5066205;28;47156;-75
2023/03/31 00:11:02;;;;;;;;;17.50;17.50;;;;;13.74;66.48;99077.47;5053733;28;45343;-73
2023/03/31 00:13:29;;;;;;;;;15.50;14.00;;;;;13.73;66.31;99077.56;5054274;28;45535;-75
2023/03/31 00:16:00;;;;;;;;;18.25;16.00;;;;;13.72;66.38;99073.22;5054101;28;45332;-75
2023/03/31 00:18:26;;;;;;;;;19.00;15.75;;;;;13.74;66.04;99087.22;5068415;28;46486;-75
2023/03/31 00:20:53;;;;;;;;;22.00;18.50;;;;;13.76;66.47;99085.31;5053281;28;45450;-75
2023/03/31 00:23:26;;;;;;;;;14.50;14.25;;;;;13.79;66.84;99067.47;5053246;28;45502;-75
2023/03/31 00:25:56;;;;;;;;;16.25;16.25;;;;;13.84;66.46;99064.59;5053933;28;45419;-75
2023/03/31 00:28:21;;;;;;;;;17.00;15.50;;;;;13.89;66.35;99071.34;5053417;28;46061;-75
2023/03/31 00:30:47;;;;;;;;;21.50;18.50;;;;;13.94;66.52;99060.47;5053435;28;45479;-75
2023/03/31 00:33:13;;;;;;;;;19.75;16.75;;;;;13.97;66.29;99062.97;5053388;28;45554;-75
2023/03/31 00:35:39;;;;;;;;;21.00;17.50;;;;;13.98;66.50;99057.59;5053869;28;45432;-75
2023/03/31 00:38:04;;;;;;;;;21.50;17.50;;;;;13.98;66.34;99062.91;5051910;28;46476;-75
2023/03/31 00:40:30;;;;;;;;;18.75;17.75;;;;;13.99;66.12;99053.16;5053642;28;45440;-75
2023/03/31 00:42:56;;;;;;;;;18.25;18.00;;;;;13.98;66.48;99046.13;5053823;28;45515;-75
2023/03/31 00:45:23;;;;;;;;;15.75;14.00;;;;;13.96;66.55;99048.00;5053764;28;45453;-75
2023/03/31 00:48:15;;;;;;;;;16.50;15.25;;;;;13.94;66.90;99055.19;5053502;28;46306;-74
2023/03/31 00:50:50;;;;;;;;;19.00;17.00;;;;;13.89;66.80;99049.31;5069142;28;45460;-75
2023/03/31 00:53:21;;;;;;;;;16.25;14.00;;;;;13.87;66.82;99046.72;5055996;28;45418;-75
2023/03/31 00:55:51;;;;;;;;;18.25;16.25;;;;;13.87;66.79;99046.72;5056532;28;45580;-75
2023/03/31 00:58:19;;;;;;;;;19.75;16.75;;;;;13.85;66.64;99045.09;5072425;28;47389;-75
2023/03/31 01:00:47;;;;;;;;;16.75;16.75;;;;;13.84;66.88;99056.63;5056990;28;45380;-75
2023/03/31 01:03:14;;;;;;;;;18.75;17.00;;;;;13.79;66.71;99048.06;5065514;28;45377;-75
2023/03/31 01:05:39;;;;;;;;;17.25;15.75;;;;;13.73;67.21;99048.44;5049899;28;45505;-75
2023/03/31 01:08:05;;;;;;;;;18.25;16.25;;;;;13.68;67.67;99039.84;5056639;28;45460;-75
2023/03/31 01:10:40;;;;;;;;;18.25;17.75;;;;;13.65;67.49;99038.22;5058850;28;45494;-75
2023/03/31 01:13:08;;;;;;;;;17.25;15.75;;;;;13.60;67.35;99043.75;5057074;28;45380;-75
2023/03/31 01:15:33;;;;;;;;;18.75;14.50;;;;;13.57;67.48;99043.91;5056799;28;45544;-75
2023/03/31 01:17:59;;;;;;;;;17.25;15.00;;;;;13.57;68.46;99051.88;5056639;28;46656;-75
2023/03/31 01:21:22;;;;;;;;;15.00;15.00;;;;;13.58;68.81;99045.63;5056634;28;45441;-75
2023/03/31 01:24:05;;;;;;;;;17.75;15.50;;;;;13.55;68.51;99037.03;5020692;28;45346;-75
2023/03/31 01:27:03;;;;;;;;;15.50;14.25;;;;;13.55;68.75;99024.63;5003792;28;45477;-75
2023/03/31 01:29:48;;;;;;;;;15.25;14.25;;;;;13.59;68.44;99017.34;5052309;28;48337;-75
2023/03/31 01:32:16;;;;;;;;;18.25;16.50;;;;;13.61;68.05;99003.09;5056541;28;45511;-75
2023/03/31 01:35:13;;;;;;;;;16.50;16.50;;;;;13.64;68.07;99010.03;5056334;28;45445;-74
2023/03/31 01:38:06;;;;;;;;;20.75;16.50;;;;;13.68;68.21;98992.19;5066817;28;45487;-75
2023/03/31 01:40:57;;;;;;;;;17.50;16.25;;;;;13.70;68.04;98993.81;5056020;28;46272;-75
2023/03/31 01:43:51;;;;;;;;;17.50;16.25;;;;;13.71;68.17;98986.72;5068357;28;45444;-75
2023/03/31 01:46:36;;;;;;;;;15.75;15.25;;;;;13.71;68.19;98981.41;5052822;28;45533;-75
2023/03/31 01:49:35;;;;;;;;;23.25;19.00;;;;;13.72;68.08;98983.13;5056282;28;45404;-75
2023/03/31 01:52:27;;;;;;;;;19.50;19.25;;;;;13.76;67.94;98966.09;5056160;28;46743;-75
2023/03/31 01:55:05;;;;;;;;;14.75;13.75;;;;;13.78;68.01;98965.06;5071230;28;45392;-75
2023/03/31 01:57:37;;;;;;;;;23.50;21.75;;;;;13.80;67.91;98954.41;5056170;28;45375;-75
2023/03/31 02:00:08;;;;;;;;;16.50;16.00;;;;;13.83;67.67;98954.22;5056604;28;45427;-76
2023/03/31 02:02:57;;;;;;;;;19.25;17.75;;;;;13.87;68.21;98945.19;5055475;28;45495;-75
2023/03/31 02:05:33;;;;;;;;;20.50;13.50;;;;;13.88;67.77;98931.84;5054421;28;45468;-75
2023/03/31 02:08:07;;;;;;;;;18.75;18.00;;;;;13.91;67.59;98922.84;5055773;28;45463;-75
2023/03/31 02:10:34;;;;;;;;;16.00;16.00;;;;;13.94;67.54;98926.19;5055663;28;45384;-75
2023/03/31 02:13:01;;;;;;;;;21.25;17.75;;;;;13.98;67.51;98916.25;5055922;28;45435;-75
2023/03/31 02:15:37;;;;;;;;;21.00;16.50;;;;;14.02;67.45;98909.84;5056042;28;45947;-76
2023/03/31 02:18:10;;;;;;;;;15.75;14.75;;;;;14.06;67.42;98913.19;5056228;28;45418;-75
2023/03/31 02:20:40;;;;;;;;;17.75;17.00;;;;;14.08;67.07;98898.00;5054600;28;45432;-75
2023/03/31 02:23:09;;;;;;;;;14.33;14.33;;;;;14.11;67.32;98890.75;5055315;28;45629;-75
2023/03/31 02:25:40;;;;;;;;;19.00;16.25;;;;;14.14;67.14;98885.28;5055996;28;45459;-75
2023/03/31 02:28:12;;;;;;;;;18.25;14.75;;;;;14.17;67.06;98890.41;5055386;28;45494;-75
2023/03/31 02:30:57;;;;;;;;;18.50;16.00;;;;;14.22;67.49;98882.19;5055794;28;45349;-75
2023/03/31 02:33:23;;;;;;;;;17.00;16.00;;;;;14.23;67.65;98878.59;5055286;28;45359;-75
2023/03/31 02:35:48;;;;;;;;;20.00;17.00;;;;;14.25;67.94;98877.53;5056150;28;45380;-75
2023/03/31 02:38:14;;;;;;;;;18.75;17.75;;;;;14.27;67.89;98870.34;5066196;28;45372;-75
2023/03/31 02:40:40;;;;;;;;;20.50;17.50;;;;;14.30;67.44;98867.50;5055730;28;45388;-75
2023/03/31 02:43:05;;;;;;;;;18.50;16.50;;;;;14.32;67.96;98865.63;5054858;28;45542;-75
2023/03/31 02:45:48;;;;;;;;;23.50;18.00;;;;;14.36;67.81;98865.44;5055085;28;45383;-75
2023/03/31 02:48:17;;;;;;;;;16.75;16.50;;;;;14.39;67.86;98857.31;5055649;28;45430;-75
2023/03/31 02:50:51;;;;;;;;;23.00;18.00;;;;;14.41;68.06;98836.91;5055305;28;45411;-75
2023/03/31 02:53:27;;;;;;;;;17.75;16.75;;;;;14.43;68.53;98827.03;5054789;28;45442;-75
2023/03/31 02:56:02;;;;;;;;;22.50;19.25;;;;;14.44;68.24;98826.09;5070341;28;45399;-75
2023/03/31 02:58:45;;;;;;;;;17.75;16.25;;;;;14.45;67.53;98828.66;5055394;28;45518;-75
2023/03/31 03:01:23;;;;;;;;;17.00;15.50;;;;;14.43;67.63;98829.69;5042727;28;45604;-75
2023/03/31 03:03:54;;;;;;;;;15.00;15.00;;;;;14.46;67.59;98811.78;5055126;28;45530;-75
2023/03/31 03:06:36;;;;;;;;;14.50;12.75;;;;;14.47;67.70;98816.16;5055288;28;45298;-75
2023/03/31 03:09:21;;;;;;;;;17.00;15.00;;;;;14.47;67.08;98810.00;5054360;28;45522;-75
2023/03/31 03:12:28;;;;;;;;;16.75;15.00;;;;;14.43;66.79;98805.81;5055034;28;45421;-75
2023/03/31 03:15:05;;;;;;;;;27.00;22.75;;;;;14.33;67.39;98801.03;5053925;28;46261;-75
2023/03/31 03:17:41;;;;;;;;;16.75;15.50;;;;;14.26;67.20;98789.09;5054909;28;45508;-75
2023/03/31 03:20:08;;;;;;;;;31.67;25.33;;;;;14.24;67.40;98779.53;5055016;28;45383;-75
2023/03/31 03:22:35;;;;;;;;;27.67;23.67;;;;;14.25;67.58;98779.44;5054313;28;45488;-75
2023/03/31 03:25:00;;;;;;;;;18.25;16.00;;;;;14.26;67.54;98772.31;5054339;28;46227;-75
2023/03/31 03:27:27;;;;;;;;;18.25;18.00;;;;;14.27;67.76;98779.34;5053124;28;45878;-75
2023/03/31 03:29:52;;;;;;;;;18.00;18.00;;;;;14.27;67.44;98768.72;5053365;28;45485;-75
2023/03/31 03:32:18;;;;;;;;;16.50;15.25;;;;;14.26;67.47;98777.63;5054125;28;45409;-75
2023/03/31 03:34:43;;;;;;;;;20.00;18.00;;;;;14.22;67.75;98794.69;5051422;28;46045;-76
2023/03/31 03:37:09;;;;;;;;;16.50;16.25;;;;;14.17;67.87;98802.91;5051452;28;45431;-75
2023/03/31 03:39:34;;;;;;;;;14.50;12.00;;;;;14.08;68.74;98806.09;5058594;27;45289;-75
2023/03/31 03:42:00;;;;;;;;;18.00;16.00;;;;;13.96;68.19;98807.69;5054217;28;45613;-75
2023/03/31 03:44:25;;;;;;;;;15.25;15.25;;;;;13.89;68.87;98805.50;5054368;28;46195;-75
2023/03/31 03:46:51;;;;;;;;;17.50;15.50;;;;;13.82;70.09;98810.28;5054546;28;45418;-75
2023/03/31 03:49:16;;;;;;;;;17.25;14.50;;;;;13.75;69.60;98806.28;5054065;28;45861;-75
2023/03/31 03:51:42;;;;;;;;;19.00;16.00;;;;;13.70;69.47;98794.25;5054093;28;45418;-75
2023/03/31 03:54:07;;;;;;;;;13.75;13.00;;;;;13.61;70.48;98785.88;5053847;28;46346;-75
2023/03/31 03:56:33;;;;;;;;;19.00;18.25;;;;;13.57;70.70;98794.94;5052568;28;45454;-75
2023/03/31 03:58:58;;;;;;;;;16.00;16.00;;;;;13.57;70.46;98791.47;5054642;28;45840;-75
2023/03/31 04:01:24;;;;;;;;;19.75;15.00;;;;;13.56;70.35;98800.34;5054486;28;45551;-75
2023/03/31 04:03:49;;;;;;;;;19.75;15.50;;;;;13.54;70.96;98805.75;5051401;28;47349;-75
2023/03/31 04:06:15;;;;;;;;;18.75;16.00;;;;;13.52;70.86;98797.03;5054756;28;45372;-75
2023/03/31 04:08:40;;;;;;;;;16.25;15.25;;;;;13.53;70.55;98803.19;5054243;28;45411;-75
2023/03/31 04:11:14;;;;;;;;;12.00;12.00;;;;;13.53;70.26;98795.22;5054654;28;45432;-75
2023/03/31 04:13:39;;;;;;;;;15.00;14.50;;;;;13.53;70.54;98793.44;5054210;28;45599;-75
2023/03/31 04:16:06;;;;;;;;;16.25;12.50;;;;;13.55;69.92;98793.34;5054069;28;45385;-75
2023/03/31 04:18:31;;;;;;;;;13.50;12.00;;;;;13.55;70.32;98796.84;5053972;28;45488;-75
2023/03/31 04:21:02;;;;;;;;;16.25;15.00;;;;;13.57;70.41;98802.88;5054018;28;45497;-75
2023/03/31 04:23:32;;;;;;;;;12.75;12.50;;;;;13.58;70.36;98790.50;5053640;28;46654;-75
2023/03/31 04:25:58;;;;;;;;;14.00;12.00;;;;;13.59;70.36;98789.56;5054688;28;45386;-75
2023/03/31 04:28:25;;;;;;;;;15.00;12.00;;;;;13.58;70.57;98780.75;5072878;28;45403;-75
2023/03/31 04:30:54;;;;;;;;;16.00;15.00;;;;;13.60;70.25;98786.81;5057188;28;45467;-75
2023/03/31 04:33:20;;;;;;;;;14.00;13.00;;;;;13.60;71.32;98807.16;5057316;28;46367;-75
2023/03/31 04:35:48;;;;;;;;;16.50;15.00;;;;;13.59;71.62;98795.72;5057033;28;45416;-76
2023/03/31 04:38:22;;;;;;;;;13.75;12.50;;;;;13.60;71.94;98807.16;5068920;28;45384;-75
2023/03/31 04:40:50;;;;;;;;;18.00;16.00;;;;;13.60;71.68;98808.00;5057246;28;45590;-75
2023/03/31 04:43:18;;;;;;;;;14.25;10.00;;;;;13.61;71.89;98774.44;5057147;28;45614;-75
2023/03/31 04:45:44;;;;;;;;;15.50;14.75;;;;;13.61;70.98;98754.09;5056753;28;45398;-75
2023/03/31 04:48:10;;;;;;;;;19.25;14.00;;;;;13.63;71.32;98770.75;5059195;28;45443;-75
2023/03/31 04:50:35;;;;;;;;;22.00;19.75;;;;;13.66;70.86;98793.56;5056891;28;45546;-75
2023/03/31 04:53:02;;;;;;;;;11.00;10.00;;;;;13.68;70.45;98783.75;5056097;28;45589;-75
2023/03/31 04:55:27;;;;;;;;;15.50;13.75;;;;;13.71;70.18;98782.72;5043580;28;45321;-75
2023/03/31 04:57:53;;;;;;;;;8.75;8.75;;;;;13.73;69.27;98800.25;5072027;28;45507;-75
2023/03/31 05:00:19;;;;;;;;;10.75;9.75;;;;;13.72;69.09;98801.19;5055290;28;45602;-75
2023/03/31 05:02:44;;;;;;;;;10.25;10.25;;;;;13.69;68.25;98803.16;5056868;28;45594;-75
2023/03/31 05:05:10;;;;;;;;;8.50;8.00;;;;;13.66;68.13;98787.41;5056123;28;45390;-75
2023/03/31 05:07:35;;;;;;;;;8.25;7.00;;;;;13.66;67.69;98800.66;5056777;28;45302;-75
2023/03/31 05:10:01;;;;;;;;;7.50;7.50;;;;;13.61;67.37;98785.88;5056907;28;45538;-75
2023/03/31 05:12:27;;;;;;;;;8.50;8.50;;;;;13.59;67.11;98795.72;5055980;28;45648;-76
2023/03/31 05:14:52;;;;;;;;;7.75;7.00;;;;;13.57;66.97;98807.38;5056160;28;45418;-75
2023/03/31 05:17:17;;;;;;;;;7.75;6.75;;;;;13.56;66.93;98805.66;5057246;28;45944;-74
2023/03/31 05:19:43;;;;;;;;;7.50;6.50;;;;;13.57;66.69;98799.41;5056405;28;45396;-74
2023/03/31 05:22:09;;;;;;;;;7.00;7.00;;;;;13.54;67.13;98796.94;5068617;28;48425;-74
2023/03/31 05:24:34;;;;;;;;;7.00;6.75;;;;;13.50;66.71;98788.31;5048979;28;45509;-74
2023/03/31 05:27:00;;;;;;;;;6.00;4.00;;;;;13.47;66.89;98785.84;5071958;28;45361;-76
2023/03/31 05:29:26;;;;;;;;;8.50;7.00;;;;;13.44;66.69;98799.25;5056406;28;45365;-75
2023/03/31 05:31:54;;;;;;;;;6.75;5.75;;;;;13.42;67.11;98795.81;5055757;28;45928;-75
2023/03/31 05:34:20;;;;;;;;;8.75;6.00;;;;;13.40;67.13;98796.88;5056021;28;45348;-76
2023/03/31 05:36:47;;;;;;;;;8.50;5.50;;;;;13.35;67.40;98799.78;5060431;28;45364;-76
2023/03/31 05:39:12;;;;;;;;;6.25;5.25;;;;;13.33;67.37;98788.41;5061164;27;45533;-76
2023/03/31 05:41:38;;;;;;;;;8.00;6.00;;;;;13.30;67.43;98788.59;5055129;28;46604;-76
2023/03/31 05:44:03;;;;;;;;;7.50;6.00;;;;;13.30;67.50;98799.16;5055465;28;45406;-67
2023/03/31 05:46:29;;;;;;;;;6.00;6.00;;;;;13.31;67.66;98800.88;5055604;28;45796;-65
2023/03/31 05:48:55;;;;;;;;;5.75;5.75;;;;;13.31;67.60;98807.97;5056330;28;45454;-67
2023/03/31 05:51:21;;;;;;;;;6.50;5.00;;;;;13.31;67.94;98807.97;5055188;28;45450;-66
2023/03/31 05:53:46;;;;;;;;;6.00;6.00;;;;;13.30;67.72;98803.59;5055658;28;45360;-67
2023/03/31 05:56:12;;;;;;;;;7.25;6.25;;;;;13.28;68.19;98796.59;5055632;28;45796;-66
2023/03/31 05:58:38;;;;;;;;;6.75;5.75;;;;;13.26;68.43;98810.88;5050504;28;45572;-68
2023/03/31 06:01:18;;;;;;;;;7.50;6.25;;;;;13.28;68.44;98803.69;5058003;27;48063;-67
2023/03/31 06:03:44;;;;;;;;;7.00;5.75;;;;;13.28;68.83;98791.31;5055091;28;45386;-65
2023/03/31 06:06:11;;;;;;;;;6.75;6.75;;;;;13.25;68.48;98791.47;5055803;28;45415;-65
2023/03/31 06:08:37;;;;;;;;;7.00;6.00;;;;;13.27;68.67;98799.34;5055268;28;45441;-65
2023/03/31 06:11:07;;;;;;;;;9.25;7.00;;;;;13.35;68.83;98797.13;5055001;28;46269;-65
2023/03/31 06:13:34;;;;;;;;;6.75;6.00;;;;;13.38;68.70;98789.00;5054698;28;45573;-65
2023/03/31 06:16:00;;;;;;;;;8.50;6.25;;;;;13.38;68.17;98806.69;5055107;28;45493;-65
2023/03/31 06:18:28;;;;;;;;;9.00;7.25;;;;;13.38;68.43;98807.56;5054806;28;45361;-65
2023/03/31 06:20:54;;;;;;;;;10.75;9.75;;;;;13.39;68.46;98803.09;5054459;28;45415;-65
2023/03/31 06:23:19;;;;;;;;;9.00;6.75;;;;;13.41;68.46;98806.50;5069491;28;45352;-66
2023/03/31 06:25:45;;;;;;;;;6.50;6.50;;;;;13.40;68.40;98813.63;5055166;28;45538;-67
2023/03/31 06:28:10;;;;;;;;;10.00;8.25;;;;;13.41;68.61;98817.94;5055380;28;45354;-68
2023/03/31 06:30:36;;;;;;;;;7.50;6.50;;;;;13.43;68.46;98818.72;5052645;28;46353;-65
2023/03/31 06:33:01;;;;;;;;;7.75;7.00;;;;;13.47;68.24;98816.75;5043547;28;45495;-72
2023/03/31 06:35:27;;;;;;;;;8.75;8.75;;;;;13.48;68.52;98800.78;5054783;28;45363;-69
2023/03/31 06:37:52;;;;;;;;;13.75;10.25;;;;;13.51;68.42;98813.84;5047465;28;45348;-66
2023/03/31 06:40:18;;;;;;;;;6.00;6.00;;;;;13.54;68.50;98807.53;5063501;28;46179;-68
2023/03/31 06:42:52;;;;;;;;;9.75;7.00;;;;;13.55;68.76;98804.81;5054788;28;45416;-68
2023/03/31 06:45:17;;;;;;;;;12.75;10.75;;;;;13.55;68.53;98801.28;5055116;28;45522;-69
2023/03/31 06:47:43;;;;;;;;;7.00;6.75;;;;;13.57;68.46;98802.88;5054481;28;45545;-69
2023/03/31 06:50:09;;;;;;;;;9.50;8.00;;;;;13.58;68.79;98811.69;5054383;28;46058;-68
2023/03/31 06:52:36;;;;;;;;;12.00;10.00;;;;;13.59;68.80;98814.25;5057720;28;45495;-67
2023/03/31 06:55:05;;;;;;;;;5.75;5.50;;;;;13.59;69.30;98810.75;5055143;28;45325;-67
2023/03/31 06:57:32;;;;;;;;;8.25;7.50;;;;;13.53;71.33;98782.00;5055308;28;45546;-66
2023/03/31 07:00:09;;;;;;;;;14.25;11.25;;;;;13.45;70.55;98779.75;5054764;28;45453;-67
2023/03/31 07:02:38;;;;;;;;;10.00;9.75;;;;;13.41;70.73;98780.00;5054803;28;45487;-67
2023/03/31 07:05:06;;;;;;;;;9.00;8.75;;;;;13.40;72.00;98794.22;5055539;28;45404;-67
2023/03/31 07:07:31;;;;;;;;;14.25;9.00;;;;;13.40;72.44;98795.09;5051625;28;45516;-68
2023/03/31 07:09:57;;;;;;;;;10.75;9.75;;;;;13.37;73.08;98797.91;5067035;28;46673;-69
2023/03/31 07:12:23;;;;;;;;;9.00;8.50;;;;;13.31;73.18;98806.19;5052747;28;45521;-68
2023/03/31 07:14:48;;;;;;;;;11.50;9.00;;;;;13.27;74.61;98815.22;5053613;28;45462;-69
2023/03/31 07:17:14;;;;;;;;;9.00;8.75;;;;;13.24;74.16;98797.72;5053059;28;45408;-69
2023/03/31 07:19:40;;;;;;;;;15.50;11.00;;;;;13.21;74.02;98789.13;5053597;28;45479;-69
2023/03/31 07:22:06;;;;;;;;;13.00;11.25;;;;;13.19;74.61;98780.41;5053574;28;45476;-69
2023/03/31 07:24:32;;;;;;;;;13.50;12.00;;;;;13.13;74.59;98802.72;5053549;28;45453;-70
2023/03/31 07:26:57;;;;;;;;;18.25;13.00;;;;;13.11;74.88;98798.44;5056041;28;45579;-70
2023/03/31 07:29:23;;;;;;;;;9.75;9.50;;;;;13.08;74.65;98775.66;5061834;27;45450;-70
2023/03/31 07:31:48;;;;;;;;;12.00;11.25;;;;;13.07;76.28;98776.59;5068943;28;45460;-70
2023/03/31 07:34:13;;;;;;;;;13.50;12.00;;;;;13.02;76.47;98770.72;5053812;28;45622;-70
2023/03/31 07:36:39;;;;;;;;;14.25;13.00;;;;;13.00;76.73;98746.13;5051646;28;45429;-70
2023/03/31 07:39:05;;;;;;;;;11.25;11.25;;;;;12.99;76.10;98749.72;5052387;28;46119;-70
2023/03/31 07:41:31;;;;;;;;;16.50;13.00;;;;;12.99;76.52;98775.31;5053187;28;45357;-70
2023/03/31 07:43:56;;;;;;;;;18.00;16.75;;;;;12.99;76.37;98764.75;5052725;28;45521;-68
2023/03/31 07:46:24;;;;;;;;;13.75;12.00;;;;;12.98;76.23;98773.63;5053045;28;45459;-70
2023/03/31 07:48:51;;;;;;;;;16.00;15.00;;;;;12.94;76.35;98775.56;5053139;28;46246;-70
2023/03/31 07:51:19;;;;;;;;;14.75;13.00;;;;;12.89;76.90;98773.19;5068441;28;45432;-70
2023/03/31 07:53:45;;;;;;;;;16.50;15.50;;;;;12.89;78.24;98748.53;5053288;28;45528;-68
2023/03/31 07:56:10;;;;;;;;;20.50;18.00;;;;;12.87;77.47;98776.88;5052854;28;45476;-70
2023/03/31 07:58:36;;;;;;;;;21.67;17.67;;;;;12.85;77.33;98800.75;5060750;28;46519;-71
2023/03/31 08:01:02;;;;;;;;;23.50;19.25;;;;;12.89;79.06;98814.69;5051800;27;45471;-69
2023/03/31 08:03:28;;;;;;;;;19.25;17.75;;;;;12.88;79.50;98824.41;5052831;28;45410;-69
2023/03/31 08:05:54;;;;;;;;;22.33;22.00;;;;;12.84;81.02;98822.84;5068346;28;45506;-69
2023/03/31 08:08:21;;;;;;;;;20.33;20.33;;;;;12.81;81.25;98811.56;5052095;28;46576;-69
2023/03/31 08:10:47;;;;;;;;;19.33;14.67;;;;;12.81;80.98;98833.59;5052384;28;45466;-69
2023/03/31 08:13:12;;;;;;;;;18.67;17.00;;;;;12.86;81.33;98828.91;5052938;28;45440;-70
2023/03/31 08:15:37;;;;;;;;;20.67;19.00;;;;;13.00;80.54;98822.88;5043507;28;45539;-69
2023/03/31 08:18:04;;;;;;;;;22.67;20.67;;;;;13.17;80.02;98820.19;5039106;28;45452;-69
2023/03/31 08:20:30;;;;;;;;;23.00;20.00;;;;;13.34;79.29;98821.03;5032576;28;45350;-70
2023/03/31 08:22:56;;;;;;;;;24.33;24.00;;;;;13.47;79.52;98846.75;5031928;28;45457;-70
2023/03/31 08:25:22;;;;;;;;;30.00;26.67;;;;;13.56;78.37;98848.03;5031914;28;45552;-70
2023/03/31 08:27:49;;;;;;;;;29.00;23.67;;;;;13.59;78.38;98845.19;5050135;28;45408;-71
2023/03/31 08:30:17;;;;;;;;;32.00;30.00;;;;;13.62;77.89;98850.31;5052450;27;45550;-69
2023/03/31 08:32:42;;;;;;;;;27.00;26.00;;;;;13.62;77.48;98876.81;5039243;27;45381;-70
2023/03/31 08:35:08;;;;;;;;;28.00;27.67;;;;;13.63;76.82;98874.06;5046233;28;45585;-70
2023/03/31 08:37:35;;;;;;;;;29.67;26.00;;;;;13.68;76.18;98851.78;5055580;28;46410;-70
2023/03/31 08:40:04;;;;;;;;;26.33;24.00;;;;;13.76;76.02;98854.81;5052827;27;45404;-71
2023/03/31 08:42:35;;;;;;;;;20.67;19.67;;;;;13.84;75.16;98845.50;5052192;28;45561;-71
2023/03/31 08:45:35;;;;;;;;;33.00;27.67;;;;;13.95;74.29;98863.41;5067001;28;45871;-70
2023/03/31 08:48:13;;;;;;;;;30.33;25.67;;;;;14.01;74.17;98851.63;5058107;28;47768;-72
2023/03/31 08:50:46;;;;;;;;;27.33;22.00;;;;;14.03;74.20;98829.38;5067669;28;45449;-70
2023/03/31 08:53:30;;;;;;;;;26.00;23.00;;;;;14.04;74.37;98849.66;5050707;28;45612;-70
2023/03/31 08:55:57;;;;;;;;;25.00;24.00;;;;;14.04;74.37;98839.06;5051952;28;45424;-70
2023/03/31 08:58:42;;;;;;;;;27.33;27.33;;;;;14.04;75.55;98857.59;5051987;28;45376;-70
2023/03/31 09:01:26;;;;;;;;;32.00;25.00;;;;;13.99;75.30;98849.06;5052212;28;45388;-69
2023/03/31 09:04:03;;;;;;;;;32.67;28.67;;;;;13.98;75.50;98842.03;5051951;28;45550;-69
2023/03/31 09:06:54;;;;;;;;;30.00;27.00;;;;;14.09;76.16;98847.56;5051999;28;45360;-69
2023/03/31 09:09:34;;;;;;;;;36.67;31.67;;;;;14.22;76.42;98848.56;5027660;28;47721;-70
2023/03/31 09:12:09;;;;;;;;;26.00;26.00;;;;;14.37;76.72;98872.47;5051262;28;45359;-70
2023/03/31 09:14:38;;;;;;;;;38.00;32.67;;;;;14.49;76.45;98848.75;5055029;28;45387;-70
2023/03/31 09:17:28;;;;;;;;;30.67;27.33;;;;;14.58;74.32;98874.69;5055093;28;45447;-70
2023/03/31 09:20:00;;;;;;;;;21.33;20.33;;;;;14.54;74.00;98859.94;5055246;28;46397;-70
2023/03/31 09:22:37;;;;;;;;;26.33;24.00;;;;;14.47;73.78;98853.28;5054923;28;45414;-70
2023/03/31 09:25:10;;;;;;;;;31.33;28.67;;;;;14.44;73.96;98858.75;5055438;28;45325;-70
2023/03/31 09:27:40;;;;;;;;;29.00;26.00;;;;;14.49;74.32;98840.78;5062944;28;45552;-70
2023/03/31 09:30:32;;;;;;;;;33.33;30.00;;;;;14.60;74.08;98843.63;5057377;27;46084;-70
2023/03/31 09:33:16;;;;;;;;;36.00;32.33;;;;;14.65;72.73;98840.69;5055005;28;45433;-69
2023/03/31 09:35:41;;;;;;;;;31.33;29.00;;;;;14.58;73.22;98845.53;5034620;28;45453;-69
2023/03/31 09:38:10;;;;;;;;;36.00;32.33;;;;;14.55;73.53;98845.72;5061551;28;45548;-70
2023/03/31 09:40:36;;;;;;;;;34.33;32.00;;;;;14.59;73.18;98817.19;5055262;28;45404;-70
2023/03/31 09:43:09;;;;;;;;;32.67;29.33;;;;;14.62;73.77;98832.94;5054899;28;45546;-70
2023/03/31 09:45:34;;;;;;;;;25.00;24.33;;;;;14.72;73.28;98833.22;5055371;28;45380;-70
2023/03/31 09:48:05;;;;;;;;;34.00;28.67;;;;;14.80;73.25;98810.56;5054874;28;45381;-70
2023/03/31 09:50:35;;;;;;;;;27.67;27.00;;;;;14.89;74.60;98815.31;5055256;28;45526;-70
2023/03/31 09:53:04;;;;;;;;;37.00;31.00;;;;;15.05;75.15;98825.81;5054648;28;45368;-70
2023/03/31 09:56:00;;;;;;;;;36.33;32.00;;;;;15.23;76.33;98845.06;5055133;28;45533;-70
2023/03/31 09:58:26;;;;;;;;;36.67;30.00;;;;;15.41;75.49;98824.44;5043527;28;45472;-71
2023/03/31 10:01:03;;;;;;;;;42.00;30.67;;;;;15.57;74.72;98798.59;5037286;28;46184;-71
2023/03/31 10:03:35;;;;;;;;;32.33;30.67;;;;;15.70;75.11;98813.63;5054412;28;45474;-70
2023/03/31 10:06:07;;;;;;;;;37.33;30.00;;;;;15.83;74.69;98818.13;5052833;28;45511;-70
2023/03/31 10:08:41;;;;;;;;;41.33;34.33;;;;;15.91;75.08;98805.19;5053891;28;45565;-70
2023/03/31 10:11:11;;;;;;;;;36.00;32.00;;;;;16.02;75.19;98813.31;5053818;28;46215;-69
2023/03/31 10:13:52;;;;;;;;;33.00;29.33;;;;;16.16;74.02;98794.59;5054454;28;45437;-70
2023/03/31 10:16:26;;;;;;;;;36.33;32.67;;;;;16.28;73.30;98800.88;5070150;28;45477;-70
2023/03/31 10:18:53;;;;;;;;;29.00;28.33;;;;;16.40;73.25;98802.72;5059863;28;45530;-70
2023/03/31 10:21:26;;;;;;;;;34.33;32.33;;;;;16.52;72.12;98785.91;5057496;28;45447;-70
2023/03/31 10:23:52;;;;;;;;;38.67;34.00;;;;;16.65;72.13;98773.47;5039280;28;45400;-67
2023/03/31 10:26:37;;;;;;;;;34.00;30.67;;;;;16.78;71.50;98781.44;5034267;28;45491;-69
2023/03/31 10:29:11;;;;;;;;;39.33;33.33;;;;;16.90;70.89;98790.38;5062233;28;45691;-69
2023/03/31 10:31:37;;;;;;;;;31.33;27.33;;;;;17.02;70.13;98789.50;5053401;28;45441;-69
2023/03/31 10:34:15;;;;;;;;;34.67;29.67;;;;;17.13;67.92;98780.72;5043402;28;45431;-69
2023/03/31 10:36:51;;;;;;;;;32.75;30.50;;;;;17.21;66.67;98767.72;5051436;28;45458;-68
2023/03/31 10:39:18;;;;;;;;;29.50;27.75;;;;;17.30;66.72;98780.34;5057483;27;45514;-68
2023/03/31 10:41:50;;;;;;;;;28.75;25.25;;;;;17.35;63.97;98765.75;5068873;28;45705;-67
2023/03/31 10:44:37;;;;;;;;;32.67;26.67;;;;;17.43;64.16;98746.50;5053474;28;45397;-72
2023/03/31 10:47:04;;;;;;;;;25.50;23.25;;;;;17.54;61.96;98743.06;5054323;28;45500;-73
2023/03/31 10:49:29;;;;;;;;;18.00;14.25;;;;;17.67;60.60;98747.38;5055681;28;45365;-71
2023/03/31 10:52:00;;;;;;;;;25.00;21.25;;;;;17.83;59.56;98735.56;5069232;28;47907;-68
2023/03/31 10:54:25;;;;;;;;;17.50;15.75;;;;;17.99;58.33;98736.94;5053488;28;45514;-70
2023/03/31 10:56:55;;;;;;;;;23.75;21.75;;;;;18.14;59.02;98741.09;5053547;28;45501;-71
2023/03/31 10:59:26;;;;;;;;;24.25;20.75;;;;;18.29;58.60;98722.19;5053734;28;45554;-70
2023/03/31 11:02:06;;;;;;;;;23.75;21.25;;;;;18.47;50.12;98721.63;5065275;28;47387;-68
2023/03/31 11:05:05;;;;;;;;;22.75;21.50;;;;;18.68;48.29;98708.41;5041204;28;45460;-73
2023/03/31 11:07:30;;;;;;;;;22.50;20.75;;;;;18.86;51.23;98699.91;5062719;28;45506;-72
2023/03/31 11:10:07;;;;;;;;;24.75;21.25;;;;;19.05;53.61;98687.59;5052932;28;45447;-73
2023/03/31 11:12:45;;;;;;;;;23.00;18.25;;;;;19.25;51.16;98679.78;5054094;28;45399;-72
2023/03/31 11:15:33;;;;;;;;;19.75;19.75;;;;;19.44;48.57;98679.94;5053820;28;45469;-72
2023/03/31 11:18:04;;;;;;;;;24.25;21.25;;;;;19.66;49.11;98690.56;5053298;28;45529;-61
2023/03/31 11:20:55;;;;;;;;;23.00;22.75;;;;;19.77;41.31;98647.69;5052705;28;45582;-61
2023/03/31 11:23:23;;;;;;;;;26.75;20.75;;;;;19.82;41.14;98682.94;5052466;28;46304;-59
2023/03/31 11:25:52;;;;;;;;;22.00;21.25;;;;;19.87;41.04;98653.13;5052157;28;45448;-66
2023/03/31 11:28:44;;;;;;;;;23.50;20.50;;;;;19.94;41.34;98646.25;5063429;28;45428;-70
2023/03/31 11:31:22;;;;;;;;;14.00;14.00;;;;;20.02;40.92;98642.94;5052917;28;45398;-60
2023/03/31 11:34:07;;;;;;;;;24.25;21.75;;;;;20.16;41.10;98622.03;5059643;28;47353;-64
2023/03/31 11:36:49;;;;;;;;;20.50;19.75;;;;;20.33;42.33;98622.38;5036608;28;45609;-67